Huron Regional Airport
KHON : now visible

Airfield :











YOU CAN JOIN US ON...

 
LOGIN :

Register | Disclaimer

   EN    FR    IT 

 









Legend :    VFR   Marginal VFR   IFR   Intensive IFR   Very Intensive IFR
Visi :
Ceiling :
>= 8 km
>= 3000ft
5 to 8 km
1000 to 3000 ft
1500m to 5 km
500 to 1000 ft
800 to 1500m
200 to 500 ft
< 800m
< 200 ft
Symbols :   Thunderstorms  Fog  Heavy snow  Heavy precipitations  Wind > 20 kt






- Airport Elevation : 1289 ft
- IATA code : HON


KHON - Huron Regional

CURRENT METAR :
  • 202355Z AUTO 16007KT 10SM CLR M18/M21 A3057 RMK AO2 SLP392 60000 T11781211 11161 21183 57006 $

EXPIRED METARs :
  • 202155Z AUTO 16007KT 10SM CLR M17/M21 A3058 RMK AO2 SLP395 T11671206 $

TAF KHON
Valid from the 21 at 00:00 until the 22 at 00:00 UTC


202323Z 2100/2124 16008KT P6SM SKC
FM210300 16010G18KT P6SM SKC
FM211100 16016G24KT P6SM SCT250 WS012/20040KT
FM211300 16017G28KT 6SM BLSN BR SCT250 WS012/21045KT
FM212000 18022G35KT 6SM BLSN BR BKN250
FM212100 18020G33KT 6SM BLSN BR BKN200 WS015/21040KT



MET'MAP, your aeronautical weather chart ! - Copyright ORBIFLY December 2007 - Disclaimer

ORBIFLY MET'MAP TEAM :

Programming & Development : Alexandra Zaïnal
Concept & original design : Baudouin d'Aumeries
Assistance for programming : Marc-Olivier Méhu
Technical & hardware support : Manuel Goepfert

Contact : metmap@orbifly.com




SOURCES & CREDITS :

   NOAA       Earth
Advisory